Warren, ME (04864)

8:04 AM EST on December 09, 2016 (GMT -0500)
Thomaston | | Change Station

Elev 157 ft 44.09 °N, 69.19 °W | Updated 7 seconds ago

Clear
Clear
27.1 °F
Feels Like 21 °F
N
5.0
Wind Variable Wind from South
Gusts 9.0 mph

Today
High -- | Low -- °F
--% Chance of Precip.
Yesterday
High -- | Low -- °F
Precip. -- in
Pressure 29.81 in
Visibility 10.0 miles
Clouds Clear
Windchill 21 °F
Dew Point 19 °F
Humidity 72%
Rainfall 0.00 in
Snow Depth Not available.
7:00 AM 3:58 PM
Waxing Gibbous, 74% visible
METAR KRKD 091256Z AUTO 28011KT 10SM CLR M02/M07 A2980 RMK AO2 SLP092 T10221072 FZRANO
Pressure 29.81 in
Visibility 10.0 miles
Clouds Clear
Windchill 21 °F
Dew Point 19 °F
Humidity 72%
Rainfall 0.00 in
Snow Depth Not available.
7:00 AM 3:58 PM
Waxing Gibbous, 74% visible
METAR KRKD 091256Z AUTO 28011KT 10SM CLR M02/M07 A2980 RMK AO2 SLP092 T10221072 FZRANO

10-Day Weather Forecast

Almanac

Astronomy

Dec. 09, 2016 Rise Set
Actual Time
Civil Twilight
Nautical Twilight
Astronomical Twilight
Moon
Length of Visible Light
Length of Day
Tomorrow will be .
, % of the Moon is Illuminated

Today's Extremes

State Highs State Lows

Community

WunderPhotos

Upload Photos

1,956,407 photos uploaded!

WunderBlog® & News

Nearby

Air Quality

  Air Quality AQ Index Pollutant
Not available.

Snow Depth

Station Depth Elevation

Earthquake Activity

City Distance Mag. Time & Date
Minimum magnitude displayed is 2.5.

Coastal Water Temperatures

Place Temperature

Stations

Nearby Weather Stations

Station Location Temp. Windchill Dew Point Humidity Wind Precip. Elev Updated Type
                   

Watches & Warnings

There are currently no watches in effect.